sensor_id;sensor_type;location;lat;lon;timestamp;P1;durP1;ratioP1;P2;durP2;ratioP2
2019;SDS011;1014;51.960;8.542;2023-07-29T00:02:23;20.27;;;19.20;;
2019;SDS011;1014;51.960;8.542;2023-07-29T00:04:50;19.90;;;18.90;;
2019;SDS011;1014;51.960;8.542;2023-07-29T00:07:17;19.83;;;18.83;;
2019;SDS011;1014;51.960;8.542;2023-07-29T00:09:44;20.40;;;19.40;;
2019;SDS011;1014;51.960;8.542;2023-07-29T00:12:11;19.87;;;18.97;;
2019;SDS011;1014;51.960;8.542;2023-07-29T00:14:38;20.23;;;19.23;;
2019;SDS011;1014;51.960;8.542;2023-07-29T00:17:06;20.57;;;19.40;;
2019;SDS011;1014;51.960;8.542;2023-07-29T00:19:33;20.60;;;19.60;;
2019;SDS011;1014;51.960;8.542;2023-07-29T00:22:00;20.27;;;19.33;;
2019;SDS011;1014;51.960;8.542;2023-07-29T00:24:27;20.40;;;19.30;;
2019;SDS011;1014;51.960;8.542;2023-07-29T00:26:54;20.13;;;19.07;;
2019;SDS011;1014;51.960;8.542;2023-07-29T00:29:21;19.57;;;18.40;;
2019;SDS011;1014;51.960;8.542;2023-07-29T00:31:48;19.47;;;18.50;;
2019;SDS011;1014;51.960;8.542;2023-07-29T00:34:17;19.70;;;18.73;;
2019;SDS011;1014;51.960;8.542;2023-07-29T00:36:44;19.33;;;18.43;;
2019;SDS011;1014;51.960;8.542;2023-07-29T00:39:11;20.40;;;19.40;;
2019;SDS011;1014;51.960;8.542;2023-07-29T00:41:39;20.30;;;19.20;;
2019;SDS011;1014;51.960;8.542;2023-07-29T00:44:06;19.30;;;18.30;;
2019;SDS011;1014;51.960;8.542;2023-07-29T00:46:33;19.17;;;18.20;;
2019;SDS011;1014;51.960;8.542;2023-07-29T00:49:01;20.07;;;19.07;;
2019;SDS011;1014;51.960;8.542;2023-07-29T00:51:29;19.30;;;18.40;;
2019;SDS011;1014;51.960;8.542;2023-07-29T00:53:57;19.90;;;18.80;;
2019;SDS011;1014;51.960;8.542;2023-07-29T00:56:24;19.80;;;18.80;;
2019;SDS011;1014;51.960;8.542;2023-07-29T00:58:51;20.07;;;19.07;;
2019;SDS011;1014;51.960;8.542;2023-07-29T01:01:23;19.43;;;18.43;;
2019;SDS011;1014;51.960;8.542;2023-07-29T01:03:50;20.63;;;19.60;;
2019;SDS011;1014;51.960;8.542;2023-07-29T01:06:20;20.43;;;19.43;;
2019;SDS011;1014;51.960;8.542;2023-07-29T01:08:53;20.27;;;19.27;;
2019;SDS011;1014;51.960;8.542;2023-07-29T01:11:26;20.07;;;19.07;;
2019;SDS011;1014;51.960;8.542;2023-07-29T01:13:58;20.43;;;19.30;;
2019;SDS011;1014;51.960;8.542;2023-07-29T01:16:28;19.33;;;18.33;;
2019;SDS011;1014;51.960;8.542;2023-07-29T01:18:57;19.50;;;18.60;;
2019;SDS011;1014;51.960;8.542;2023-07-29T01:21:26;20.70;;;19.60;;
2019;SDS011;1014;51.960;8.542;2023-07-29T01:23:58;20.07;;;18.80;;
2019;SDS011;1014;51.960;8.542;2023-07-29T01:26:26;20.03;;;18.83;;
2019;SDS011;1014;51.960;8.542;2023-07-29T01:28:54;20.00;;;18.93;;
2019;SDS011;1014;51.960;8.542;2023-07-29T01:31:23;20.93;;;19.63;;
2019;SDS011;1014;51.960;8.542;2023-07-29T01:33:56;20.43;;;19.43;;
2019;SDS011;1014;51.960;8.542;2023-07-29T01:36:25;21.37;;;20.07;;
2019;SDS011;1014;51.960;8.542;2023-07-29T01:38:54;20.33;;;19.33;;
2019;SDS011;1014;51.960;8.542;2023-07-29T01:41:23;21.07;;;19.80;;
2019;SDS011;1014;51.960;8.542;2023-07-29T01:43:52;19.93;;;18.93;;
2019;SDS011;1014;51.960;8.542;2023-07-29T01:46:19;20.07;;;19.03;;
2019;SDS011;1014;51.960;8.542;2023-07-29T01:48:46;21.20;;;20.20;;
2019;SDS011;1014;51.960;8.542;2023-07-29T01:51:13;21.53;;;20.07;;
2019;SDS011;1014;51.960;8.542;2023-07-29T01:53:40;21.37;;;20.17;;
2019;SDS011;1014;51.960;8.542;2023-07-29T01:56:07;20.73;;;19.70;;
2019;SDS011;1014;51.960;8.542;2023-07-29T01:58:36;19.57;;;18.53;;
2019;SDS011;1014;51.960;8.542;2023-07-29T02:01:03;20.07;;;19.07;;
2019;SDS011;1014;51.960;8.542;2023-07-29T02:03:30;19.80;;;18.80;;
2019;SDS011;1014;51.960;8.542;2023-07-29T02:05:57;20.43;;;19.30;;
2019;SDS011;1014;51.960;8.542;2023-07-29T02:08:24;20.93;;;19.50;;
2019;SDS011;1014;51.960;8.542;2023-07-29T02:10:51;20.23;;;19.27;;
2019;SDS011;1014;51.960;8.542;2023-07-29T02:13:18;20.47;;;19.33;;
2019;SDS011;1014;51.960;8.542;2023-07-29T02:15:46;21.07;;;19.93;;
2019;SDS011;1014;51.960;8.542;2023-07-29T02:18:14;20.30;;;19.30;;
2019;SDS011;1014;51.960;8.542;2023-07-29T02:20:41;20.60;;;19.30;;
2019;SDS011;1014;51.960;8.542;2023-07-29T02:23:14;21.00;;;19.90;;
2019;SDS011;1014;51.960;8.542;2023-07-29T02:25:41;20.43;;;19.33;;
2019;SDS011;1014;51.960;8.542;2023-07-29T02:28:08;20.97;;;19.97;;
2019;SDS011;1014;51.960;8.542;2023-07-29T02:30:35;20.63;;;19.60;;
2019;SDS011;1014;51.960;8.542;2023-07-29T02:33:04;21.87;;;20.67;;
2019;SDS011;1014;51.960;8.542;2023-07-29T02:35:31;20.87;;;19.80;;
2019;SDS011;1014;51.960;8.542;2023-07-29T02:37:58;21.67;;;20.57;;
2019;SDS011;1014;51.960;8.542;2023-07-29T02:40:25;21.53;;;20.37;;
2019;SDS011;1014;51.960;8.542;2023-07-29T02:42:54;20.83;;;19.73;;
2019;SDS011;1014;51.960;8.542;2023-07-29T02:45:21;21.13;;;20.03;;
2019;SDS011;1014;51.960;8.542;2023-07-29T02:47:48;20.53;;;19.33;;
2019;SDS011;1014;51.960;8.542;2023-07-29T02:50:16;20.97;;;19.87;;
2019;SDS011;1014;51.960;8.542;2023-07-29T02:52:43;20.80;;;19.70;;
2019;SDS011;1014;51.960;8.542;2023-07-29T02:55:10;21.77;;;20.67;;
2019;SDS011;1014;51.960;8.542;2023-07-29T02:57:38;21.00;;;19.90;;
2019;SDS011;1014;51.960;8.542;2023-07-29T03:00:05;21.50;;;20.40;;
2019;SDS011;1014;51.960;8.542;2023-07-29T03:02:33;20.33;;;19.33;;
2019;SDS011;1014;51.960;8.542;2023-07-29T03:05:00;20.77;;;19.77;;
2019;SDS011;1014;51.960;8.542;2023-07-29T03:07:28;20.70;;;19.60;;
2019;SDS011;1014;51.960;8.542;2023-07-29T03:09:55;20.63;;;19.40;;
2019;SDS011;1014;51.960;8.542;2023-07-29T03:12:22;20.03;;;18.97;;
2019;SDS011;1014;51.960;8.542;2023-07-29T03:14:49;20.80;;;19.80;;
2019;SDS011;1014;51.960;8.542;2023-07-29T03:17:16;20.20;;;19.30;;
2019;SDS011;1014;51.960;8.542;2023-07-29T03:19:44;20.87;;;19.87;;
2019;SDS011;1014;51.960;8.542;2023-07-29T03:22:11;21.03;;;20.03;;
2019;SDS011;1014;51.960;8.542;2023-07-29T03:24:39;20.77;;;19.67;;
2019;SDS011;1014;51.960;8.542;2023-07-29T03:27:07;21.43;;;20.23;;
2019;SDS011;1014;51.960;8.542;2023-07-29T03:29:34;20.60;;;19.60;;
2019;SDS011;1014;51.960;8.542;2023-07-29T03:32:02;20.57;;;19.37;;
2019;SDS011;1014;51.960;8.542;2023-07-29T03:34:29;20.90;;;19.87;;
2019;SDS011;1014;51.960;8.542;2023-07-29T03:36:56;21.33;;;20.10;;
2019;SDS011;1014;51.960;8.542;2023-07-29T03:39:23;20.87;;;19.77;;
2019;SDS011;1014;51.960;8.542;2023-07-29T03:41:52;21.07;;;19.97;;
2019;SDS011;1014;51.960;8.542;2023-07-29T03:44:19;21.10;;;20.00;;
2019;SDS011;1014;51.960;8.542;2023-07-29T03:46:46;20.83;;;19.83;;
2019;SDS011;1014;51.960;8.542;2023-07-29T03:49:13;20.73;;;19.73;;
2019;SDS011;1014;51.960;8.542;2023-07-29T03:51:41;20.33;;;19.27;;
2019;SDS011;1014;51.960;8.542;2023-07-29T03:54:08;21.30;;;20.20;;
2019;SDS011;1014;51.960;8.542;2023-07-29T03:56:35;21.40;;;20.30;;
2019;SDS011;1014;51.960;8.542;2023-07-29T03:59:04;20.87;;;19.73;;
2019;SDS011;1014;51.960;8.542;2023-07-29T04:01:31;22.63;;;20.93;;
2019;SDS011;1014;51.960;8.542;2023-07-29T04:03:58;21.87;;;20.77;;
2019;SDS011;1014;51.960;8.542;2023-07-29T04:06:26;21.77;;;20.60;;
2019;SDS011;1014;51.960;8.542;2023-07-29T04:08:53;22.20;;;20.90;;
2019;SDS011;1014;51.960;8.542;2023-07-29T04:11:20;21.67;;;20.57;;
2019;SDS011;1014;51.960;8.542;2023-07-29T04:13:47;20.90;;;19.90;;
2019;SDS011;1014;51.960;8.542;2023-07-29T04:16:15;22.33;;;21.07;;
2019;SDS011;1014;51.960;8.542;2023-07-29T04:18:42;22.07;;;20.77;;
2019;SDS011;1014;51.960;8.542;2023-07-29T04:21:09;21.50;;;20.40;;
2019;SDS011;1014;51.960;8.542;2023-07-29T04:23:37;21.50;;;20.40;;
2019;SDS011;1014;51.960;8.542;2023-07-29T04:26:05;22.30;;;21.17;;
2019;SDS011;1014;51.960;8.542;2023-07-29T04:28:32;21.53;;;20.43;;
2019;SDS011;1014;51.960;8.542;2023-07-29T04:30:59;21.93;;;20.83;;
2019;SDS011;1014;51.960;8.542;2023-07-29T04:33:28;21.07;;;20.07;;
2019;SDS011;1014;51.960;8.542;2023-07-29T04:35:56;21.57;;;20.30;;
2019;SDS011;1014;51.960;8.542;2023-07-29T04:38:24;21.43;;;20.33;;
2019;SDS011;1014;51.960;8.542;2023-07-29T04:40:51;21.00;;;19.97;;
2019;SDS011;1014;51.960;8.542;2023-07-29T04:43:18;22.27;;;21.07;;
2019;SDS011;1014;51.960;8.542;2023-07-29T04:45:45;22.00;;;20.80;;
2019;SDS011;1014;51.960;8.542;2023-07-29T04:48:12;22.40;;;21.20;;
2019;SDS011;1014;51.960;8.542;2023-07-29T04:50:40;22.87;;;21.67;;
2019;SDS011;1014;51.960;8.542;2023-07-29T04:53:07;21.50;;;20.43;;
2019;SDS011;1014;51.960;8.542;2023-07-29T04:55:34;20.73;;;19.73;;
2019;SDS011;1014;51.960;8.542;2023-07-29T04:58:01;21.97;;;20.87;;
2019;SDS011;1014;51.960;8.542;2023-07-29T05:00:28;22.03;;;20.80;;
2019;SDS011;1014;51.960;8.542;2023-07-29T05:02:56;21.77;;;20.57;;
2019;SDS011;1014;51.960;8.542;2023-07-29T05:05:23;21.07;;;19.83;;
2019;SDS011;1014;51.960;8.542;2023-07-29T05:07:51;21.37;;;20.27;;
2019;SDS011;1014;51.960;8.542;2023-07-29T05:10:18;21.87;;;20.77;;
2019;SDS011;1014;51.960;8.542;2023-07-29T05:12:45;21.70;;;20.60;;
2019;SDS011;1014;51.960;8.542;2023-07-29T05:15:12;22.40;;;21.20;;
2019;SDS011;1014;51.960;8.542;2023-07-29T05:17:39;21.37;;;20.17;;
2019;SDS011;1014;51.960;8.542;2023-07-29T05:20:07;22.17;;;20.97;;
2019;SDS011;1014;51.960;8.542;2023-07-29T05:22:34;21.50;;;20.40;;
2019;SDS011;1014;51.960;8.542;2023-07-29T05:25:02;21.10;;;20.00;;
2019;SDS011;1014;51.960;8.542;2023-07-29T05:27:30;22.17;;;21.07;;
2019;SDS011;1014;51.960;8.542;2023-07-29T05:29:57;21.37;;;20.37;;
2019;SDS011;1014;51.960;8.542;2023-07-29T05:32:24;20.93;;;19.93;;
2019;SDS011;1014;51.960;8.542;2023-07-29T05:34:51;21.30;;;20.10;;
2019;SDS011;1014;51.960;8.542;2023-07-29T05:37:18;22.13;;;20.83;;
2019;SDS011;1014;51.960;8.542;2023-07-29T05:39:45;21.17;;;20.00;;
2019;SDS011;1014;51.960;8.542;2023-07-29T05:42:13;21.53;;;20.43;;
2019;SDS011;1014;51.960;8.542;2023-07-29T05:44:40;20.73;;;19.40;;
2019;SDS011;1014;51.960;8.542;2023-07-29T05:47:07;19.77;;;18.77;;
2019;SDS011;1014;51.960;8.542;2023-07-29T05:49:34;20.50;;;19.50;;
2019;SDS011;1014;51.960;8.542;2023-07-29T05:52:01;20.37;;;19.40;;
2019;SDS011;1014;51.960;8.542;2023-07-29T05:54:28;21.00;;;19.80;;
2019;SDS011;1014;51.960;8.542;2023-07-29T05:56:55;20.40;;;19.30;;
2019;SDS011;1014;51.960;8.542;2023-07-29T05:59:24;20.27;;;19.17;;
2019;SDS011;1014;51.960;8.542;2023-07-29T06:01:54;20.13;;;19.13;;
2019;SDS011;1014;51.960;8.542;2023-07-29T06:04:21;19.43;;;18.53;;
2019;SDS011;1014;51.960;8.542;2023-07-29T06:06:48;20.27;;;19.27;;
2019;SDS011;1014;51.960;8.542;2023-07-29T06:09:15;19.93;;;19.03;;
2019;SDS011;1014;51.960;8.542;2023-07-29T06:11:42;21.03;;;19.70;;
2019;SDS011;1014;51.960;8.542;2023-07-29T06:14:09;20.10;;;18.90;;
2019;SDS011;1014;51.960;8.542;2023-07-29T06:16:37;19.63;;;18.73;;
2019;SDS011;1014;51.960;8.542;2023-07-29T06:19:04;21.30;;;20.10;;
2019;SDS011;1014;51.960;8.542;2023-07-29T06:21:33;20.53;;;19.53;;
2019;SDS011;1014;51.960;8.542;2023-07-29T06:24:00;20.63;;;19.63;;
2019;SDS011;1014;51.960;8.542;2023-07-29T06:26:28;20.00;;;19.10;;
2019;SDS011;1014;51.960;8.542;2023-07-29T06:28:55;20.67;;;19.63;;
2019;SDS011;1014;51.960;8.542;2023-07-29T06:31:22;21.23;;;20.13;;
2019;SDS011;1014;51.960;8.542;2023-07-29T06:33:50;20.63;;;19.73;;
2019;SDS011;1014;51.960;8.542;2023-07-29T06:36:19;20.70;;;19.70;;
2019;SDS011;1014;51.960;8.542;2023-07-29T06:38:46;20.87;;;19.87;;
2019;SDS011;1014;51.960;8.542;2023-07-29T06:41:13;21.20;;;20.10;;
2019;SDS011;1014;51.960;8.542;2023-07-29T06:43:41;19.70;;;18.70;;
2019;SDS011;1014;51.960;8.542;2023-07-29T06:46:08;19.90;;;19.00;;
2019;SDS011;1014;51.960;8.542;2023-07-29T06:48:35;21.43;;;20.23;;
2019;SDS011;1014;51.960;8.542;2023-07-29T06:51:04;21.03;;;19.67;;
2019;SDS011;1014;51.960;8.542;2023-07-29T06:53:31;21.00;;;20.00;;
2019;SDS011;1014;51.960;8.542;2023-07-29T06:55:58;21.90;;;20.53;;
2019;SDS011;1014;51.960;8.542;2023-07-29T06:58:25;21.53;;;20.43;;
2019;SDS011;1014;51.960;8.542;2023-07-29T07:00:52;21.87;;;20.63;;
2019;SDS011;1014;51.960;8.542;2023-07-29T07:03:19;22.23;;;21.13;;
2019;SDS011;1014;51.960;8.542;2023-07-29T07:05:46;22.60;;;21.13;;
2019;SDS011;1014;51.960;8.542;2023-07-29T07:08:14;23.13;;;21.83;;
2019;SDS011;1014;51.960;8.542;2023-07-29T07:10:41;23.80;;;22.40;;
2019;SDS011;1014;51.960;8.542;2023-07-29T07:13:08;24.23;;;22.73;;
2019;SDS011;1014;51.960;8.542;2023-07-29T07:15:35;24.63;;;23.10;;
2019;SDS011;1014;51.960;8.542;2023-07-29T07:18:02;26.27;;;24.43;;
2019;SDS011;1014;51.960;8.542;2023-07-29T07:20:29;27.33;;;25.37;;
2019;SDS011;1014;51.960;8.542;2023-07-29T07:22:56;29.03;;;26.93;;
2019;SDS011;1014;51.960;8.542;2023-07-29T07:25:25;28.53;;;26.53;;
2019;SDS011;1014;51.960;8.542;2023-07-29T07:27:52;29.13;;;27.20;;
2019;SDS011;1014;51.960;8.542;2023-07-29T07:30:19;29.63;;;27.50;;
2019;SDS011;1014;51.960;8.542;2023-07-29T07:32:46;28.87;;;27.10;;
2019;SDS011;1014;51.960;8.542;2023-07-29T07:35:13;28.50;;;26.50;;
2019;SDS011;1014;51.960;8.542;2023-07-29T07:37:40;29.60;;;27.40;;
2019;SDS011;1014;51.960;8.542;2023-07-29T07:40:07;30.40;;;28.30;;
2019;SDS011;1014;51.960;8.542;2023-07-29T07:42:36;30.47;;;28.27;;
2019;SDS011;1014;51.960;8.542;2023-07-29T07:45:03;30.50;;;28.37;;
2019;SDS011;1014;51.960;8.542;2023-07-29T07:47:30;30.20;;;28.10;;
2019;SDS011;1014;51.960;8.542;2023-07-29T07:49:58;30.80;;;28.70;;
2019;SDS011;1014;51.960;8.542;2023-07-29T07:52:25;31.53;;;29.53;;
2019;SDS011;1014;51.960;8.542;2023-07-29T07:54:52;30.17;;;28.07;;
2019;SDS011;1014;51.960;8.542;2023-07-29T07:57:19;31.13;;;29.03;;
2019;SDS011;1014;51.960;8.542;2023-07-29T07:59:48;29.60;;;27.80;;
2019;SDS011;1014;51.960;8.542;2023-07-29T08:02:15;29.50;;;27.70;;
2019;SDS011;1014;51.960;8.542;2023-07-29T08:04:42;29.60;;;27.60;;
2019;SDS011;1014;51.960;8.542;2023-07-29T08:07:09;28.07;;;26.13;;
2019;SDS011;1014;51.960;8.542;2023-07-29T08:09:36;25.80;;;23.90;;
2019;SDS011;1014;51.960;8.542;2023-07-29T08:12:04;25.57;;;23.97;;
2019;SDS011;1014;51.960;8.542;2023-07-29T08:14:31;25.13;;;23.50;;
2019;SDS011;1014;51.960;8.542;2023-07-29T08:16:59;24.03;;;22.63;;
2019;SDS011;1014;51.960;8.542;2023-07-29T08:19:26;21.87;;;20.67;;
2019;SDS011;1014;51.960;8.542;2023-07-29T08:21:53;21.07;;;19.87;;
2019;SDS011;1014;51.960;8.542;2023-07-29T08:24:21;22.20;;;20.90;;
2019;SDS011;1014;51.960;8.542;2023-07-29T08:26:48;22.00;;;20.80;;
2019;SDS011;1014;51.960;8.542;2023-07-29T08:29:15;21.90;;;20.70;;
2019;SDS011;1014;51.960;8.542;2023-07-29T08:31:42;22.87;;;21.60;;
2019;SDS011;1014;51.960;8.542;2023-07-29T08:34:10;22.40;;;21.17;;
2019;SDS011;1014;51.960;8.542;2023-07-29T08:36:38;21.70;;;20.60;;
2019;SDS011;1014;51.960;8.542;2023-07-29T08:39:05;23.40;;;21.90;;
2019;SDS011;1014;51.960;8.542;2023-07-29T08:41:32;24.30;;;22.83;;
2019;SDS011;1014;51.960;8.542;2023-07-29T08:44:11;24.67;;;23.17;;
2019;SDS011;1014;51.960;8.542;2023-07-29T08:46:38;24.10;;;22.80;;
2019;SDS011;1014;51.960;8.542;2023-07-29T08:49:05;24.03;;;22.53;;
2019;SDS011;1014;51.960;8.542;2023-07-29T08:51:34;24.27;;;23.00;;
2019;SDS011;1014;51.960;8.542;2023-07-29T08:54:01;23.23;;;22.07;;
2019;SDS011;1014;51.960;8.542;2023-07-29T08:56:29;22.77;;;21.57;;
2019;SDS011;1014;51.960;8.542;2023-07-29T08:58:56;23.50;;;22.30;;
2019;SDS011;1014;51.960;8.542;2023-07-29T09:01:25;21.70;;;20.40;;
2019;SDS011;1014;51.960;8.542;2023-07-29T09:03:52;21.80;;;20.60;;
2019;SDS011;1014;51.960;8.542;2023-07-29T09:06:19;21.20;;;20.00;;
2019;SDS011;1014;51.960;8.542;2023-07-29T09:08:49;21.10;;;20.00;;
2019;SDS011;1014;51.960;8.542;2023-07-29T09:11:18;21.57;;;20.33;;
2019;SDS011;1014;51.960;8.542;2023-07-29T09:13:46;21.17;;;19.77;;
2019;SDS011;1014;51.960;8.542;2023-07-29T09:16:13;34.10;;;25.87;;
2019;SDS011;1014;51.960;8.542;2023-07-29T09:18:39;21.03;;;19.73;;
2019;SDS011;1014;51.960;8.542;2023-07-29T09:21:06;21.60;;;20.13;;
2019;SDS011;1014;51.960;8.542;2023-07-29T09:23:38;20.63;;;19.43;;
2019;SDS011;1014;51.960;8.542;2023-07-29T09:26:08;21.20;;;20.00;;
2019;SDS011;1014;51.960;8.542;2023-07-29T09:28:35;21.80;;;20.50;;
2019;SDS011;1014;51.960;8.542;2023-07-29T09:31:03;22.00;;;20.70;;
2019;SDS011;1014;51.960;8.542;2023-07-29T09:33:32;21.77;;;20.50;;
2019;SDS011;1014;51.960;8.542;2023-07-29T09:36:00;21.83;;;20.10;;
2019;SDS011;1014;51.960;8.542;2023-07-29T09:38:27;22.03;;;20.80;;
2019;SDS011;1014;51.960;8.542;2023-07-29T09:40:55;23.57;;;22.27;;
2019;SDS011;1014;51.960;8.542;2023-07-29T09:43:26;22.00;;;20.63;;
2019;SDS011;1014;51.960;8.542;2023-07-29T09:45:55;22.00;;;20.80;;
2019;SDS011;1014;51.960;8.542;2023-07-29T09:48:26;22.57;;;21.30;;
2019;SDS011;1014;51.960;8.542;2023-07-29T09:50:53;21.77;;;20.57;;
2019;SDS011;1014;51.960;8.542;2023-07-29T09:53:20;22.37;;;20.97;;
2019;SDS011;1014;51.960;8.542;2023-07-29T09:55:48;21.87;;;20.67;;
2019;SDS011;1014;51.960;8.542;2023-07-29T09:58:15;21.00;;;19.90;;
2019;SDS011;1014;51.960;8.542;2023-07-29T10:00:47;22.90;;;21.50;;
2019;SDS011;1014;51.960;8.542;2023-07-29T10:03:14;22.57;;;21.37;;
2019;SDS011;1014;51.960;8.542;2023-07-29T10:05:41;22.27;;;21.03;;
2019;SDS011;1014;51.960;8.542;2023-07-29T10:08:08;22.37;;;21.17;;
2019;SDS011;1014;51.960;8.542;2023-07-29T10:10:36;22.20;;;21.00;;
2019;SDS011;1014;51.960;8.542;2023-07-29T10:13:03;21.97;;;20.67;;
2019;SDS011;1014;51.960;8.542;2023-07-29T10:15:31;22.33;;;21.13;;
2019;SDS011;1014;51.960;8.542;2023-07-29T10:18:00;22.03;;;20.77;;
2019;SDS011;1014;51.960;8.542;2023-07-29T10:20:28;22.07;;;20.87;;
2019;SDS011;1014;51.960;8.542;2023-07-29T10:22:58;22.40;;;21.10;;
2019;SDS011;1014;51.960;8.542;2023-07-29T10:25:26;22.50;;;21.30;;
2019;SDS011;1014;51.960;8.542;2023-07-29T10:27:56;21.70;;;20.50;;
2019;SDS011;1014;51.960;8.542;2023-07-29T10:30:24;21.63;;;20.33;;
2019;SDS011;1014;51.960;8.542;2023-07-29T10:32:51;22.10;;;20.80;;
2019;SDS011;1014;51.960;8.542;2023-07-29T10:35:20;21.23;;;20.03;;
2019;SDS011;1014;51.960;8.542;2023-07-29T10:37:47;22.40;;;21.20;;
2019;SDS011;1014;51.960;8.542;2023-07-29T10:40:16;22.57;;;21.30;;
2019;SDS011;1014;51.960;8.542;2023-07-29T10:45:25;20.73;;;19.60;;
2019;SDS011;1014;51.960;8.542;2023-07-29T10:47:52;21.20;;;20.00;;
2019;SDS011;1014;51.960;8.542;2023-07-29T10:50:21;21.20;;;20.00;;
2019;SDS011;1014;51.960;8.542;2023-07-29T10:52:49;21.23;;;20.13;;
2019;SDS011;1014;51.960;8.542;2023-07-29T10:55:27;21.37;;;20.17;;
2019;SDS011;1014;51.960;8.542;2023-07-29T10:58:04;21.40;;;20.20;;
2019;SDS011;1014;51.960;8.542;2023-07-29T11:00:31;21.30;;;19.80;;
2019;SDS011;1014;51.960;8.542;2023-07-29T11:02:59;21.17;;;20.07;;
2019;SDS011;1014;51.960;8.542;2023-07-29T11:05:28;20.90;;;19.80;;
2019;SDS011;1014;51.960;8.542;2023-07-29T11:08:15;22.87;;;21.57;;
2019;SDS011;1014;51.960;8.542;2023-07-29T11:10:43;21.47;;;20.17;;
2019;SDS011;1014;51.960;8.542;2023-07-29T11:13:10;21.50;;;20.20;;
2019;SDS011;1014;51.960;8.542;2023-07-29T11:15:38;22.13;;;20.93;;
2019;SDS011;1014;51.960;8.542;2023-07-29T11:18:05;21.50;;;20.30;;
2019;SDS011;1014;51.960;8.542;2023-07-29T11:20:35;21.80;;;20.50;;
2019;SDS011;1014;51.960;8.542;2023-07-29T11:23:02;21.73;;;20.53;;
2019;SDS011;1014;51.960;8.542;2023-07-29T11:25:30;22.13;;;20.83;;
2019;SDS011;1014;51.960;8.542;2023-07-29T11:27:59;22.33;;;21.03;;
2019;SDS011;1014;51.960;8.542;2023-07-29T11:30:26;22.50;;;21.20;;
2019;SDS011;1014;51.960;8.542;2023-07-29T11:32:55;21.27;;;20.07;;
2019;SDS011;1014;51.960;8.542;2023-07-29T11:35:22;21.83;;;20.53;;
2019;SDS011;1014;51.960;8.542;2023-07-29T11:37:50;21.40;;;20.20;;
2019;SDS011;1014;51.960;8.542;2023-07-29T11:40:18;22.83;;;21.53;;
2019;SDS011;1014;51.960;8.542;2023-07-29T11:42:46;21.50;;;20.30;;
2019;SDS011;1014;51.960;8.542;2023-07-29T11:45:15;21.93;;;20.63;;
2019;SDS011;1014;51.960;8.542;2023-07-29T11:47:42;22.57;;;21.27;;
2019;SDS011;1014;51.960;8.542;2023-07-29T11:50:10;22.70;;;21.37;;
2019;SDS011;1014;51.960;8.542;2023-07-29T11:52:39;22.57;;;21.27;;
2019;SDS011;1014;51.960;8.542;2023-07-29T11:55:08;23.10;;;21.80;;
2019;SDS011;1014;51.960;8.542;2023-07-29T11:57:36;22.30;;;20.93;;
2019;SDS011;1014;51.960;8.542;2023-07-29T12:00:04;23.03;;;21.70;;
2019;SDS011;1014;51.960;8.542;2023-07-29T12:02:32;23.80;;;22.30;;
2019;SDS011;1014;51.960;8.542;2023-07-29T12:04:59;23.20;;;21.90;;
2019;SDS011;1014;51.960;8.542;2023-07-29T12:07:27;22.00;;;20.70;;
2019;SDS011;1014;51.960;8.542;2023-07-29T12:09:54;22.57;;;21.27;;
2019;SDS011;1014;51.960;8.542;2023-07-29T12:12:23;23.17;;;21.87;;
2019;SDS011;1014;51.960;8.542;2023-07-29T12:14:50;22.70;;;21.20;;
2019;SDS011;1014;51.960;8.542;2023-07-29T12:17:17;23.10;;;21.70;;
2019;SDS011;1014;51.960;8.542;2023-07-29T12:19:44;23.43;;;21.93;;
2019;SDS011;1014;51.960;8.542;2023-07-29T12:22:12;23.27;;;21.87;;
2019;SDS011;1014;51.960;8.542;2023-07-29T12:24:44;23.20;;;21.90;;
2019;SDS011;1014;51.960;8.542;2023-07-29T12:27:11;23.40;;;22.00;;
2019;SDS011;1014;51.960;8.542;2023-07-29T12:29:42;24.67;;;23.07;;
2019;SDS011;1014;51.960;8.542;2023-07-29T12:32:11;23.20;;;21.90;;
2019;SDS011;1014;51.960;8.542;2023-07-29T12:34:39;22.50;;;21.20;;
2019;SDS011;1014;51.960;8.542;2023-07-29T12:37:06;22.80;;;21.50;;
2019;SDS011;1014;51.960;8.542;2023-07-29T12:39:34;23.07;;;21.77;;
2019;SDS011;1014;51.960;8.542;2023-07-29T12:42:08;184.33;;;174.40;;
2019;SDS011;1014;51.960;8.542;2023-07-29T12:44:35;597.10;;;546.60;;
2019;SDS011;1014;51.960;8.542;2023-07-29T12:47:04;625.40;;;569.80;;
2019;SDS011;1014;51.960;8.542;2023-07-29T12:49:33;640.03;;;583.93;;
2019;SDS011;1014;51.960;8.542;2023-07-29T12:52:00;651.37;;;596.10;;
2019;SDS011;1014;51.960;8.542;2023-07-29T12:54:27;641.67;;;584.13;;
2019;SDS011;1014;51.960;8.542;2023-07-29T12:56:54;691.47;;;633.37;;
2019;SDS011;1014;51.960;8.542;2023-07-29T12:59:21;642.13;;;583.87;;
2019;SDS011;1014;51.960;8.542;2023-07-29T13:01:48;644.33;;;586.33;;
2019;SDS011;1014;51.960;8.542;2023-07-29T13:04:17;622.47;;;565.17;;
2019;SDS011;1014;51.960;8.542;2023-07-29T13:06:44;604.07;;;548.17;;
2019;SDS011;1014;51.960;8.542;2023-07-29T13:09:11;615.60;;;558.90;;
2019;SDS011;1014;51.960;8.542;2023-07-29T13:11:38;614.03;;;556.93;;
2019;SDS011;1014;51.960;8.542;2023-07-29T13:14:05;638.47;;;580.70;;
2019;SDS011;1014;51.960;8.542;2023-07-29T13:16:32;656.47;;;598.27;;
2019;SDS011;1014;51.960;8.542;2023-07-29T13:18:59;647.63;;;590.07;;
2019;SDS011;1014;51.960;8.542;2023-07-29T13:21:28;677.30;;;618.80;;
2019;SDS011;1014;51.960;8.542;2023-07-29T13:23:55;624.43;;;572.07;;
2019;SDS011;1014;51.960;8.542;2023-07-29T13:26:22;662.93;;;605.10;;
2019;SDS011;1014;51.960;8.542;2023-07-29T13:28:49;673.90;;;616.27;;
2019;SDS011;1014;51.960;8.542;2023-07-29T13:31:16;681.67;;;623.93;;
2019;SDS011;1014;51.960;8.542;2023-07-29T13:33:43;677.30;;;619.43;;
2019;SDS011;1014;51.960;8.542;2023-07-29T13:36:10;658.92;;;601.60;;
2019;SDS011;1014;51.960;8.542;2023-07-29T13:38:39;652.30;;;595.90;;
2019;SDS011;1014;51.960;8.542;2023-07-29T13:41:06;629.07;;;572.40;;
2019;SDS011;1014;51.960;8.542;2023-07-29T13:43:33;601.03;;;544.40;;
2019;SDS011;1014;51.960;8.542;2023-07-29T13:46:00;595.22;;;539.75;;
2019;SDS011;1014;51.960;8.542;2023-07-29T13:48:27;664.30;;;605.45;;
2019;SDS011;1014;51.960;8.542;2023-07-29T13:50:54;572.97;;;517.88;;
2019;SDS011;1014;51.960;8.542;2023-07-29T13:53:22;627.53;;;574.00;;
2019;SDS011;1014;51.960;8.542;2023-07-29T13:55:50;620.63;;;564.45;;
2019;SDS011;1014;51.960;8.542;2023-07-29T13:58:17;689.83;;;630.90;;
2019;SDS011;1014;51.960;8.542;2023-07-29T14:00:44;679.43;;;620.30;;
2019;SDS011;1014;51.960;8.542;2023-07-29T14:03:11;676.77;;;618.67;;
2019;SDS011;1014;51.960;8.542;2023-07-29T14:05:38;658.97;;;601.27;;
2019;SDS011;1014;51.960;8.542;2023-07-29T14:08:05;585.03;;;529.72;;
2019;SDS011;1014;51.960;8.542;2023-07-29T14:10:32;609.15;;;552.97;;
2019;SDS011;1014;51.960;8.542;2023-07-29T14:13:01;616.78;;;560.05;;
2019;SDS011;1014;51.960;8.542;2023-07-29T14:15:28;600.28;;;544.53;;
2019;SDS011;1014;51.960;8.542;2023-07-29T14:17:57;660.50;;;603.30;;
2019;SDS011;1014;51.960;8.542;2023-07-29T14:20:24;647.55;;;590.88;;
2019;SDS011;1014;51.960;8.542;2023-07-29T14:22:51;685.15;;;627.45;;
2019;SDS011;1014;51.960;8.542;2023-07-29T14:25:18;624.03;;;567.85;;
2019;SDS011;1014;51.960;8.542;2023-07-29T14:27:45;661.75;;;604.95;;
2019;SDS011;1014;51.960;8.542;2023-07-29T14:30:14;619.85;;;564.25;;
2019;SDS011;1014;51.960;8.542;2023-07-29T14:32:41;637.08;;;580.80;;
2019;SDS011;1014;51.960;8.542;2023-07-29T14:35:08;647.25;;;591.08;;
2019;SDS011;1014;51.960;8.542;2023-07-29T14:37:35;655.50;;;598.85;;
2019;SDS011;1014;51.960;8.542;2023-07-29T14:40:03;643.08;;;586.67;;
2019;SDS011;1014;51.960;8.542;2023-07-29T14:42:30;649.83;;;592.97;;
2019;SDS011;1014;51.960;8.542;2023-07-29T14:44:57;627.08;;;570.83;;
2019;SDS011;1014;51.960;8.542;2023-07-29T14:47:25;614.72;;;558.33;;
2019;SDS011;1014;51.960;8.542;2023-07-29T14:49:52;619.08;;;563.53;;